Terminal Aerodrome Forecast
Issued by NWS Corpus Christi, TX

Home | Current Version | Previous Version | Text Only | Print | Product List | Glossary On
Versions: 1 2 3 4 5 6 7 8 9 10 11 12 13 14 15 16 17 18 19 20 21
000
FTUS44 KCRP 201417 AAC
TAFCRP
TAF AMD
KCRP 201417Z 2014/2112 05008KT P6SM VCSH SCT015 OVC090
      TEMPO 2014/2015 -RA BKN015
     FM201500 33012KT P6SM VCSH BKN045
     FM210000 24006KT P6SM FEW100=

USA.gov is the U.S. government's official web portal to all federal, state and local government web resources and services.